createdAt,value
2017-02-23T00:00:50.184Z,22.75
2017-02-23T00:01:50.121Z,22.8
2017-02-23T00:02:50.058Z,22.8
2017-02-23T00:03:49.991Z,22.78
2017-02-23T00:04:49.932Z,22.84
2017-02-23T00:05:49.914Z,22.75
2017-02-23T00:06:49.802Z,22.83
2017-02-23T00:07:49.746Z,22.78
2017-02-23T00:08:49.690Z,22.81
2017-02-23T00:09:49.625Z,22.76
2017-02-23T00:10:49.574Z,22.78
2017-02-23T00:11:49.491Z,22.76
2017-02-23T00:12:49.437Z,22.83
2017-02-23T00:13:49.380Z,22.73
2017-02-23T00:14:49.304Z,22.81
2017-02-23T00:15:49.250Z,22.75
2017-02-23T00:16:49.186Z,22.7
2017-02-23T00:17:48.734Z,22.76
2017-02-23T00:18:48.675Z,22.81
2017-02-23T00:19:49.001Z,22.8
2017-02-23T00:20:48.945Z,22.76
2017-02-23T00:21:48.881Z,22.73
2017-02-23T00:22:48.807Z,22.83
2017-02-23T00:23:48.745Z,22.75
2017-02-23T00:24:48.686Z,22.78
2017-02-23T00:25:48.618Z,22.81
2017-02-23T00:26:48.561Z,22.78
2017-02-23T00:27:48.502Z,22.87
2017-02-23T00:28:48.433Z,22.81
2017-02-23T00:29:48.378Z,22.78
2017-02-23T00:30:48.324Z,22.8
2017-02-23T00:31:48.250Z,22.76
2017-02-23T00:32:48.194Z,22.76
2017-02-23T00:33:47.743Z,22.81
2017-02-23T00:34:48.060Z,22.83
2017-02-23T00:35:47.620Z,22.8
2017-02-23T00:36:47.946Z,22.81
2017-02-23T00:37:47.494Z,22.81
2017-02-23T00:38:47.821Z,22.81
2017-02-23T00:39:47.750Z,22.76
2017-02-23T00:40:47.688Z,22.83
2017-02-23T00:41:47.244Z,22.78
2017-02-23T00:42:47.575Z,22.8
2017-02-23T00:43:47.127Z,22.83
2017-02-23T00:44:47.439Z,22.83
2017-02-23T00:45:47.378Z,22.78
2017-02-23T00:46:46.935Z,22.81
2017-02-23T00:47:47.262Z,22.8
2017-02-23T00:48:47.190Z,22.87
2017-02-23T00:49:47.147Z,22.78
2017-02-23T00:50:47.080Z,22.81
2017-02-23T00:51:46.630Z,22.84
2017-02-23T00:52:46.957Z,22.81
2017-02-23T00:53:46.884Z,22.8
2017-02-23T00:54:46.831Z,22.83
2017-02-23T00:55:46.758Z,22.84
2017-02-23T00:56:46.706Z,22.85
2017-02-23T00:57:46.633Z,22.81
2017-02-23T00:58:46.580Z,22.85
2017-02-23T00:59:46.513Z,22.84
2017-02-23T01:01:15.867Z,22.76
2017-02-23T01:02:15.774Z,22.81
2017-02-23T01:03:15.707Z,22.8
2017-02-23T01:04:15.658Z,22.84
2017-02-23T01:05:15.204Z,22.85
2017-02-23T01:06:15.539Z,22.87
2017-02-23T01:07:15.462Z,22.84
2017-02-23T01:08:15.402Z,22.84
2017-02-23T01:09:15.335Z,22.83
2017-02-23T01:10:15.576Z,22.83
2017-02-23T01:11:15.218Z,22.8
2017-02-23T01:12:14.792Z,22.83
2017-02-23T01:13:15.093Z,22.81
2017-02-23T01:14:15.029Z,22.81
2017-02-23T01:15:14.966Z,22.83
2017-02-23T01:16:14.514Z,22.84
2017-02-23T01:17:14.849Z,22.78
2017-02-23T01:18:14.776Z,22.81
2017-02-23T01:19:14.724Z,22.76
2017-02-23T01:20:14.651Z,22.8
2017-02-23T01:21:14.216Z,22.83
2017-02-23T01:22:14.542Z,22.83
2017-02-23T01:23:14.466Z,22.78
2017-02-23T01:24:14.410Z,22.84
2017-02-23T01:25:14.342Z,22.84
2017-02-23T01:26:14.280Z,22.87
2017-02-23T01:27:14.219Z,22.83
2017-02-23T01:28:14.183Z,22.87
2017-02-23T01:29:14.101Z,22.78
2017-02-23T01:30:13.652Z,22.84
2017-02-23T01:31:13.971Z,22.8
2017-02-23T01:32:13.902Z,22.8
2017-02-23T01:33:13.847Z,22.81
2017-02-23T01:34:13.796Z,22.84
2017-02-23T01:35:13.716Z,22.85
2017-02-23T01:36:13.273Z,22.81
2017-02-23T01:37:13.594Z,22.83
2017-02-23T01:38:13.533Z,22.84
2017-02-23T01:39:13.470Z,22.81
2017-02-23T01:40:13.022Z,22.83
2017-02-23T01:41:13.355Z,22.81
2017-02-23T01:42:13.284Z,22.8
2017-02-23T01:43:12.834Z,22.81
2017-02-23T01:44:12.778Z,22.8
2017-02-23T01:45:12.711Z,22.83
2017-02-23T01:46:13.038Z,22.81
2017-02-23T01:47:12.988Z,22.76
2017-02-23T01:48:12.926Z,22.8
2017-02-23T01:49:12.848Z,22.83
2017-02-23T01:50:12.414Z,22.83
2017-02-23T01:51:12.730Z,22.8
2017-02-23T01:52:12.685Z,22.81
2017-02-23T01:53:12.598Z,22.81
2017-02-23T01:54:12.544Z,22.85
2017-02-23T01:55:11.726Z,22.84
2017-02-23T01:56:12.035Z,22.83
2017-02-23T01:57:12.348Z,22.8
2017-02-23T01:58:11.899Z,22.85
2017-02-23T01:59:12.230Z,22.8
2017-02-23T02:00:12.189Z,22.8
2017-02-23T02:01:12.117Z,22.83
2017-02-23T02:02:11.674Z,22.85
2017-02-23T02:03:11.976Z,22.76
2017-02-23T02:04:11.951Z,22.93
2017-02-23T02:05:11.870Z,22.78
2017-02-23T02:06:11.420Z,22.83
2017-02-23T02:07:11.727Z,22.83
2017-02-23T02:08:11.674Z,22.84
2017-02-23T02:09:11.646Z,22.8
2017-02-23T02:10:11.170Z,22.83
2017-02-23T02:11:11.478Z,22.9
2017-02-23T02:12:11.036Z,22.88
2017-02-23T02:13:11.357Z,22.76
2017-02-23T02:14:10.918Z,22.84
2017-02-23T02:15:11.247Z,22.93
2017-02-23T02:16:11.185Z,22.8
2017-02-23T02:17:11.112Z,22.78
2017-02-23T02:18:11.045Z,22.88
2017-02-23T02:19:11.003Z,22.81
2017-02-23T02:20:10.543Z,22.83
2017-02-23T02:21:10.474Z,22.83
2017-02-23T02:22:10.814Z,22.84
2017-02-23T02:23:10.733Z,22.93
2017-02-23T02:24:10.294Z,22.83
2017-02-23T02:25:10.232Z,22.93
2017-02-23T02:26:10.179Z,22.93
2017-02-23T02:27:10.504Z,22.76
2017-02-23T02:28:10.059Z,22.81
2017-02-23T02:29:09.980Z,22.83
2017-02-23T02:30:10.311Z,22.88
2017-02-23T02:31:10.245Z,22.84
2017-02-23T02:32:10.179Z,22.84
2017-02-23T02:33:10.129Z,22.84
2017-02-23T02:34:09.668Z,22.85
2017-02-23T02:35:09.630Z,22.87
2017-02-23T02:36:09.943Z,22.83
2017-02-23T02:37:09.868Z,22.9
2017-02-23T02:38:09.807Z,22.91
2017-02-23T02:39:09.743Z,22.81
2017-02-23T02:40:09.312Z,22.85
2017-02-23T02:41:09.636Z,22.93
2017-02-23T02:42:09.561Z,22.91
2017-02-23T02:43:09.497Z,22.81
2017-02-23T02:44:09.441Z,22.9
2017-02-23T02:45:09.373Z,22.78
2017-02-23T02:46:09.306Z,22.88
2017-02-23T02:47:08.863Z,22.84
2017-02-23T02:48:09.184Z,22.91
2017-02-23T02:49:09.120Z,22.87
2017-02-23T02:50:09.060Z,22.83
2017-02-23T02:51:08.996Z,22.88
2017-02-23T02:52:08.938Z,22.93
2017-02-23T02:53:08.493Z,22.87
2017-02-23T02:54:08.817Z,22.84
2017-02-23T02:55:08.757Z,22.85
2017-02-23T02:56:08.312Z,22.88
2017-02-23T02:57:08.246Z,22.8
2017-02-23T02:58:08.565Z,22.83
2017-02-23T02:59:08.509Z,22.88
2017-02-23T03:00:08.053Z,22.93
2017-02-23T03:01:08.375Z,22.93
2017-02-23T03:02:08.316Z,22.9
2017-02-23T03:03:08.254Z,22.88
2017-02-23T03:04:08.191Z,22.9
2017-02-23T03:05:08.131Z,22.8
2017-02-23T03:06:07.682Z,22.9
2017-02-23T03:07:07.243Z,22.88
2017-02-23T03:08:07.947Z,22.93
2017-02-23T03:09:07.888Z,22.84
2017-02-23T03:10:07.825Z,22.96
2017-02-23T03:11:07.760Z,22.83
2017-02-23T03:12:07.719Z,22.85
2017-02-23T03:13:07.637Z,22.93
2017-02-23T03:14:07.575Z,22.8
2017-02-23T03:15:07.597Z,22.91
2017-02-23T03:16:07.450Z,22.9
2017-02-23T03:17:07.384Z,22.9
2017-02-23T03:18:07.336Z,22.88
2017-02-23T03:19:07.259Z,22.91
2017-02-23T03:20:07.201Z,22.84
2017-02-23T03:21:07.138Z,22.91
2017-02-23T03:22:07.087Z,22.91
2017-02-23T03:23:07.055Z,22.9
2017-02-23T03:24:06.975Z,22.91
2017-02-23T03:25:06.935Z,22.91
2017-02-23T03:26:06.825Z,22.96
2017-02-23T03:27:06.767Z,22.94
2017-02-23T03:28:06.712Z,22.88
2017-02-23T03:29:06.678Z,22.85
2017-02-23T03:30:06.627Z,22.96
2017-02-23T03:31:06.516Z,22.91
2017-02-23T03:32:06.069Z,22.9
2017-02-23T03:33:06.393Z,22.9
2017-02-23T03:34:06.332Z,22.9
2017-02-23T03:35:05.892Z,22.85
2017-02-23T03:36:06.215Z,22.9
2017-02-23T03:37:06.146Z,22.94
2017-02-23T03:38:06.083Z,22.93
2017-02-23T03:39:06.020Z,22.91
2017-02-23T03:40:05.623Z,22.87
2017-02-23T03:41:05.931Z,22.9
2017-02-23T03:42:05.837Z,22.91
2017-02-23T03:43:05.771Z,22.9
2017-02-23T03:44:05.708Z,22.91
2017-02-23T03:45:05.269Z,22.9
2017-02-23T03:46:05.215Z,22.91
2017-02-23T03:47:05.556Z,22.93
2017-02-23T03:48:05.482Z,22.88
2017-02-23T03:49:05.396Z,22.93
2017-02-23T03:50:04.956Z,22.91
2017-02-23T03:51:05.274Z,22.9
2017-02-23T03:52:05.241Z,22.8
2017-02-23T03:53:05.158Z,22.94
2017-02-23T03:54:05.089Z,22.9
2017-02-23T03:55:05.034Z,22.91
2017-02-23T03:56:04.962Z,22.94
2017-02-23T03:57:04.910Z,22.93
2017-02-23T03:58:04.858Z,22.94
2017-02-23T03:59:04.780Z,22.94
2017-02-23T04:00:04.716Z,22.94
2017-02-23T04:01:04.662Z,22.93
2017-02-23T04:02:04.598Z,22.94
2017-02-23T04:03:04.528Z,22.93
2017-02-23T04:04:04.477Z,22.96
2017-02-23T04:05:04.037Z,22.8
2017-02-23T04:06:04.359Z,22.91
2017-02-23T04:07:04.277Z,22.93
2017-02-23T04:08:04.220Z,22.91
2017-02-23T04:09:04.161Z,22.99
2017-02-23T04:10:04.121Z,22.9
2017-02-23T04:11:04.039Z,22.93
2017-02-23T04:12:03.980Z,22.99
2017-02-23T04:13:03.920Z,22.87
2017-02-23T04:14:03.860Z,22.93
2017-02-23T04:15:03.783Z,22.84
2017-02-23T04:16:03.725Z,22.91
2017-02-23T04:17:03.283Z,22.93
2017-02-23T04:18:03.601Z,22.91
2017-02-23T04:19:03.539Z,22.93
2017-02-23T04:20:03.475Z,22.94
2017-02-23T04:21:03.420Z,22.96
2017-02-23T04:22:03.365Z,22.94
2017-02-23T04:23:03.302Z,22.9
2017-02-23T04:24:03.238Z,22.98
2017-02-23T04:25:03.163Z,22.88
2017-02-23T04:26:03.103Z,22.91
2017-02-23T04:27:03.037Z,22.84
2017-02-23T04:28:02.987Z,22.93
2017-02-23T04:29:02.918Z,22.91
2017-02-23T04:30:02.861Z,22.9
2017-02-23T04:31:02.817Z,22.93
2017-02-23T04:32:02.738Z,22.9
2017-02-23T04:33:02.667Z,22.94
2017-02-23T04:34:02.606Z,22.9
2017-02-23T04:35:02.554Z,22.93
2017-02-23T04:36:02.479Z,22.88
2017-02-23T04:37:02.429Z,22.88
2017-02-23T04:38:02.358Z,22.93
2017-02-23T04:39:02.316Z,22.94
2017-02-23T04:40:02.249Z,22.87
2017-02-23T04:41:02.172Z,22.91
2017-02-23T04:42:02.111Z,22.88
2017-02-23T04:43:02.052Z,22.91
2017-02-23T04:44:01.991Z,22.96
2017-02-23T04:45:01.928Z,22.84
2017-02-23T04:46:01.862Z,22.87
2017-02-23T04:47:01.831Z,22.87
2017-02-23T04:48:01.794Z,22.9
2017-02-23T04:49:01.675Z,22.93
2017-02-23T04:50:01.617Z,22.9
2017-02-23T04:51:01.545Z,22.91
2017-02-23T04:52:01.501Z,22.87
2017-02-23T04:53:01.425Z,22.9
2017-02-23T04:54:01.361Z,22.96
2017-02-23T04:55:01.303Z,22.93
2017-02-23T04:56:01.235Z,22.87
2017-02-23T04:57:01.180Z,22.85
2017-02-23T04:58:01.115Z,22.9
2017-02-23T04:59:01.055Z,22.9
2017-02-23T05:00:00.987Z,22.93
2017-02-23T05:01:00.929Z,22.98
2017-02-23T05:02:00.485Z,22.94
2017-02-23T05:03:00.800Z,22.91
2017-02-23T05:04:00.756Z,22.85
2017-02-23T05:05:00.700Z,22.9
2017-02-23T05:06:00.618Z,22.81
2017-02-23T05:07:00.554Z,22.88
2017-02-23T05:08:00.491Z,22.91
2017-02-23T05:09:00.433Z,22.9
2017-02-23T05:09:59.995Z,22.91
2017-02-23T05:11:00.314Z,22.91
2017-02-23T05:11:59.869Z,22.94
2017-02-23T05:12:59.809Z,22.96
2017-02-23T05:13:59.747Z,22.91
2017-02-23T05:14:59.666Z,22.9
2017-02-23T05:16:00.002Z,22.9
2017-02-23T05:16:59.947Z,22.93
2017-02-23T05:17:59.871Z,22.93
2017-02-23T05:18:59.824Z,22.94
2017-02-23T05:19:59.745Z,22.99
2017-02-23T05:20:59.711Z,22.91
2017-02-23T05:21:59.632Z,22.98
2017-02-23T05:22:59.566Z,22.93
2017-02-23T05:23:59.507Z,22.8
2017-02-23T05:24:59.060Z,22.9
2017-02-23T05:25:59.368Z,22.88
2017-02-23T05:26:59.310Z,22.91
2017-02-23T05:27:59.266Z,22.85
2017-02-23T05:28:59.191Z,22.94
2017-02-23T05:29:59.125Z,22.88
2017-02-23T05:30:59.066Z,22.88
2017-02-23T05:31:58.997Z,22.91
2017-02-23T05:32:58.939Z,22.93
2017-02-23T05:33:58.881Z,22.91
2017-02-23T05:34:58.822Z,22.96
2017-02-23T05:35:58.371Z,22.91
2017-02-23T05:36:58.694Z,22.9
2017-02-23T05:37:58.626Z,22.91
2017-02-23T05:38:58.563Z,22.9
2017-02-23T05:39:58.510Z,22.96
2017-02-23T05:40:58.452Z,22.85
2017-02-23T05:41:58.445Z,22.91
2017-02-23T05:42:58.321Z,22.93
2017-02-23T05:43:58.260Z,22.87
2017-02-23T05:44:58.193Z,22.98
2017-02-23T05:45:58.139Z,22.96
2017-02-23T05:46:58.085Z,22.9
2017-02-23T05:47:58.019Z,22.83
2017-02-23T05:48:57.181Z,22.9
2017-02-23T05:49:57.502Z,22.88
2017-02-23T05:50:57.835Z,22.99
2017-02-23T05:51:57.765Z,22.9
2017-02-23T05:52:57.311Z,22.83
2017-02-23T05:53:57.640Z,22.91
2017-02-23T05:54:57.570Z,22.93
2017-02-23T05:55:57.520Z,22.9
2017-02-23T05:56:57.459Z,22.91
2017-02-23T05:57:57.392Z,22.93
2017-02-23T05:58:57.332Z,22.94
2017-02-23T05:59:57.262Z,22.8
2017-02-23T06:00:57.205Z,22.93
2017-02-23T06:01:57.140Z,22.88
2017-02-23T06:02:57.096Z,22.94
2017-02-23T06:03:57.016Z,22.93
2017-02-23T06:04:56.954Z,22.85
2017-02-23T06:05:56.893Z,22.93
2017-02-23T06:06:56.827Z,22.93
2017-02-23T06:07:56.796Z,22.85
2017-02-23T06:08:56.316Z,22.81
2017-02-23T06:09:56.638Z,22.91
2017-02-23T06:10:56.592Z,22.83
2017-02-23T06:11:56.524Z,22.88
2017-02-23T06:12:56.556Z,22.81
2017-02-23T06:13:56.396Z,22.83
2017-02-23T06:14:56.330Z,22.93
2017-02-23T06:15:55.883Z,22.93
2017-02-23T06:16:56.222Z,22.98
2017-02-23T06:17:56.149Z,22.94
2017-02-23T06:18:56.123Z,22.93
2017-02-23T06:19:56.018Z,22.8
2017-02-23T06:20:55.978Z,22.84
2017-02-23T06:21:55.892Z,22.93
2017-02-23T06:22:55.835Z,22.81
2017-02-23T06:23:55.772Z,22.8
2017-02-23T06:24:55.714Z,22.81
2017-02-23T06:25:55.663Z,22.85
2017-02-23T06:26:55.583Z,22.93
2017-02-23T06:27:55.556Z,22.8
2017-02-23T06:28:55.503Z,22.91
2017-02-23T06:29:55.017Z,22.78
2017-02-23T06:30:55.356Z,22.93
2017-02-23T06:31:55.297Z,22.91
2017-02-23T06:32:55.212Z,22.83
2017-02-23T06:33:55.164Z,22.93
2017-02-23T06:34:55.182Z,22.83
2017-02-23T06:35:55.033Z,22.93
2017-02-23T06:36:54.962Z,22.81
2017-02-23T06:37:54.899Z,22.93
2017-02-23T06:38:54.838Z,22.96
2017-02-23T06:39:54.776Z,22.83
2017-02-23T06:40:54.744Z,22.88
2017-02-23T06:41:54.653Z,22.93
2017-02-23T06:42:54.617Z,22.93
2017-02-23T06:43:54.538Z,22.85
2017-02-23T06:44:54.486Z,22.83
2017-02-23T06:45:54.408Z,22.83
2017-02-23T06:46:54.349Z,22.81
2017-02-23T06:47:54.295Z,22.83
2017-02-23T06:48:54.217Z,22.96
2017-02-23T06:49:54.159Z,22.8
2017-02-23T06:50:54.096Z,22.9
2017-02-23T06:51:54.037Z,22.81
2017-02-23T06:52:53.967Z,22.9
2017-02-23T06:53:53.908Z,22.87
2017-02-23T06:54:53.843Z,22.93
2017-02-23T06:55:53.797Z,22.93
2017-02-23T06:56:53.730Z,22.8
2017-02-23T06:57:53.669Z,22.9
2017-02-23T06:58:53.609Z,22.88
2017-02-23T06:59:53.151Z,22.9
2017-02-23T07:00:53.483Z,22.87
2017-02-23T07:01:53.408Z,22.83
2017-02-23T07:02:53.356Z,22.81
2017-02-23T07:03:53.287Z,22.85
2017-02-23T07:04:52.839Z,22.85
2017-02-23T07:05:53.172Z,22.84
2017-02-23T07:06:53.096Z,22.83
2017-02-23T07:07:53.051Z,22.84
2017-02-23T07:08:52.616Z,22.88
2017-02-23T07:09:52.911Z,22.83
2017-02-23T07:10:52.867Z,22.85
2017-02-23T07:11:52.787Z,22.8
2017-02-23T07:12:52.743Z,22.81
2017-02-23T07:13:52.666Z,22.93
2017-02-23T07:14:52.230Z,22.81
2017-02-23T07:15:52.547Z,22.9
2017-02-23T07:16:52.502Z,22.84
2017-02-23T07:17:52.414Z,22.9
2017-02-23T07:18:52.356Z,22.85
2017-02-23T07:19:52.289Z,22.91
2017-02-23T07:20:52.246Z,22.9
2017-02-23T07:21:52.170Z,22.93
2017-02-23T07:22:52.125Z,22.83
2017-02-23T07:23:52.118Z,22.9
2017-02-23T07:24:51.985Z,22.93
2017-02-23T07:25:51.941Z,22.87
2017-02-23T07:26:51.860Z,22.94
2017-02-23T07:27:51.793Z,22.91
2017-02-23T07:28:51.732Z,22.93
2017-02-23T07:29:51.681Z,22.87
2017-02-23T07:30:51.603Z,22.85
2017-02-23T07:31:51.155Z,22.93
2017-02-23T07:32:51.482Z,22.84
2017-02-23T07:33:51.033Z,22.93
2017-02-23T07:34:51.365Z,22.85
2017-02-23T07:35:51.295Z,22.88
2017-02-23T07:36:50.851Z,22.93
2017-02-23T07:37:50.793Z,22.91
2017-02-23T07:38:50.734Z,22.96
2017-02-23T07:39:51.066Z,22.81
2017-02-23T07:40:50.996Z,22.87
2017-02-23T07:41:50.920Z,22.81
2017-02-23T07:42:50.865Z,22.87
2017-02-23T07:43:50.806Z,22.8
2017-02-23T07:44:50.739Z,22.96
2017-02-23T07:45:50.693Z,22.88
2017-02-23T07:46:50.627Z,22.84
2017-02-23T07:47:50.572Z,22.91
2017-02-23T07:48:50.111Z,22.76
2017-02-23T07:49:50.426Z,22.9
2017-02-23T07:50:50.368Z,22.76
2017-02-23T07:51:50.315Z,22.9
2017-02-23T07:52:49.850Z,22.93
2017-02-23T07:53:49.819Z,22.83
2017-02-23T07:54:49.747Z,22.94
2017-02-23T07:55:50.133Z,22.87
2017-02-23T07:56:50.005Z,22.94
2017-02-23T07:57:49.931Z,22.91
2017-02-23T07:58:49.877Z,22.9
2017-02-23T07:59:49.806Z,22.93
2017-02-23T08:00:49.756Z,22.91
2017-02-23T08:01:49.687Z,22.93
2017-02-23T08:02:49.634Z,22.9
2017-02-23T08:03:49.553Z,22.91
2017-02-23T08:04:49.496Z,22.84
2017-02-23T08:05:49.435Z,22.9
2017-02-23T08:06:49.373Z,22.88
2017-02-23T08:07:49.314Z,22.9
2017-02-23T08:08:49.253Z,22.91
2017-02-23T08:09:49.183Z,22.9
2017-02-23T08:10:48.730Z,22.98
2017-02-23T08:11:49.067Z,22.96
2017-02-23T08:12:49.024Z,22.87
2017-02-23T08:13:48.947Z,22.9
2017-02-23T08:14:48.903Z,22.91
2017-02-23T08:15:48.811Z,22.93
2017-02-23T08:16:48.766Z,22.91
2017-02-23T08:17:48.686Z,22.94
2017-02-23T08:18:48.238Z,22.87
2017-02-23T08:19:48.172Z,22.94
2017-02-23T08:20:48.499Z,22.99
2017-02-23T08:21:48.456Z,22.94
2017-02-23T08:22:48.389Z,23.03
2017-02-23T08:23:47.921Z,22.99
2017-02-23T08:24:48.250Z,22.98
2017-02-23T08:25:48.188Z,23.03
2017-02-23T08:26:48.129Z,22.94
2017-02-23T08:27:48.074Z,22.96
2017-02-23T08:28:48.006Z,22.98
2017-02-23T08:29:47.572Z,23.02
2017-02-23T08:30:47.885Z,23
2017-02-23T08:31:47.867Z,22.99
2017-02-23T08:32:47.773Z,23.03
2017-02-23T08:33:47.764Z,22.94
2017-02-23T08:34:47.630Z,22.98
2017-02-23T08:35:47.577Z,23.03
2017-02-23T08:36:47.541Z,22.98
2017-02-23T08:37:47.441Z,23.02
2017-02-23T08:38:47.403Z,23.03
2017-02-23T08:39:46.934Z,22.99
2017-02-23T08:40:47.510Z,22.99
2017-02-23T08:41:47.210Z,23.03
2017-02-23T08:42:46.792Z,23.05
2017-02-23T08:43:47.076Z,23.02
2017-02-23T08:44:47.025Z,23.05
2017-02-23T08:45:46.960Z,23.02
2017-02-23T08:46:46.888Z,22.99
2017-02-23T08:47:46.440Z,23.02
2017-02-23T08:48:46.763Z,23.08
2017-02-23T08:49:46.721Z,23.03
2017-02-23T08:50:46.671Z,23.05
2017-02-23T08:51:46.601Z,23.06
2017-02-23T08:52:46.515Z,23.02
2017-02-23T08:53:46.451Z,23.03
2017-02-23T08:54:46.391Z,23.06
2017-02-23T08:55:46.346Z,23
2017-02-23T08:56:46.297Z,23.09
2017-02-23T08:57:46.206Z,23.08
2017-02-23T08:58:46.156Z,23
2017-02-23T08:59:46.080Z,23
2017-02-23T09:00:46.104Z,23.05
2017-02-23T09:01:45.611Z,23.02
2017-02-23T09:02:46.075Z,22.99
2017-02-23T09:03:45.836Z,23.05
2017-02-23T09:04:45.777Z,23.02
2017-02-23T09:05:45.710Z,23.05
2017-02-23T09:06:45.663Z,23.08
2017-02-23T09:07:45.603Z,23.1
2017-02-23T09:08:45.544Z,23.03
2017-02-23T09:09:45.464Z,23.05
2017-02-23T09:10:45.405Z,23.06
2017-02-23T09:11:45.335Z,23.03
2017-02-23T09:12:45.294Z,23.02
2017-02-23T09:13:45.212Z,23.02
2017-02-23T09:14:44.376Z,22.98
2017-02-23T09:15:45.375Z,23.08
2017-02-23T09:16:45.037Z,23.05
2017-02-23T09:17:44.983Z,23.05
2017-02-23T09:18:44.945Z,23.06
2017-02-23T09:19:44.476Z,23.05
2017-02-23T09:20:44.508Z,23.02
2017-02-23T09:21:44.718Z,23.02
2017-02-23T09:22:44.666Z,23.02
2017-02-23T09:23:44.595Z,23
2017-02-23T09:24:44.536Z,22.99
2017-02-23T09:25:44.349Z,23.02
2017-02-23T09:26:44.493Z,23.03
2017-02-23T09:27:43.961Z,23
2017-02-23T09:28:44.333Z,23.06
2017-02-23T09:29:43.836Z,23.02
2017-02-23T09:30:43.791Z,22.96
2017-02-23T09:31:44.102Z,23.03
2017-02-23T09:32:43.673Z,22.99
2017-02-23T09:33:43.975Z,23.05
2017-02-23T09:34:43.923Z,23.03
2017-02-23T09:35:43.467Z,23.05
2017-02-23T09:36:43.793Z,23.02
2017-02-23T09:37:43.734Z,23.02
2017-02-23T09:38:43.666Z,23.02
2017-02-23T09:39:43.616Z,23.02
2017-02-23T09:40:43.191Z,23.05
2017-02-23T09:41:43.476Z,23.06
2017-02-23T09:42:43.430Z,23.03
2017-02-23T09:43:42.978Z,23
2017-02-23T09:44:43.290Z,23.06
2017-02-23T09:45:43.270Z,23.06
2017-02-23T09:46:43.172Z,23.06
2017-02-23T09:47:42.721Z,23
2017-02-23T09:48:43.050Z,23.06
2017-02-23T09:49:43.042Z,23.02
2017-02-23T09:50:42.956Z,23.06
2017-02-23T09:51:43.071Z,23.03
2017-02-23T09:52:42.804Z,23.06
2017-02-23T09:53:42.809Z,23.06
2017-02-23T09:54:42.833Z,23.03
2017-02-23T09:55:42.419Z,23.03
2017-02-23T09:56:42.564Z,23.05
2017-02-23T09:57:42.489Z,23.06
2017-02-23T09:58:42.422Z,23.06
2017-02-23T09:59:42.364Z,23
2017-02-23T10:00:42.305Z,23.06
2017-02-23T10:01:42.234Z,23.05
2017-02-23T10:02:42.174Z,23.06
2017-02-23T10:03:42.114Z,23.02
2017-02-23T10:04:41.680Z,23.02
2017-02-23T10:05:41.989Z,23.02
2017-02-23T10:06:41.924Z,23.02
2017-02-23T10:07:41.863Z,23
2017-02-23T10:08:41.802Z,23.03
2017-02-23T10:09:41.363Z,22.99
2017-02-23T10:10:41.289Z,23
2017-02-23T10:11:41.617Z,23.06
2017-02-23T10:12:41.176Z,23.06
2017-02-23T10:13:41.108Z,23.06
2017-02-23T10:14:41.468Z,23.06
2017-02-23T10:15:41.000Z,23.02
2017-02-23T10:16:41.315Z,23.03
2017-02-23T10:17:41.239Z,22.99
2017-02-23T10:18:41.192Z,23.06
2017-02-23T10:19:41.132Z,23.02
2017-02-23T10:20:41.182Z,22.99
2017-02-23T10:21:41.005Z,23.05
2017-02-23T10:22:41.165Z,23.02
2017-02-23T10:23:40.483Z,23.05
2017-02-23T10:24:40.809Z,22.99
2017-02-23T10:25:40.845Z,22.99
2017-02-23T10:26:40.327Z,23
2017-02-23T10:27:40.647Z,23.03
2017-02-23T10:28:40.579Z,23.03
2017-02-23T10:29:40.503Z,22.99
2017-02-23T10:30:40.062Z,22.98
2017-02-23T10:31:40.380Z,23.06
2017-02-23T10:32:40.313Z,23.03
2017-02-23T10:33:40.263Z,23.03
2017-02-23T10:34:40.213Z,23.05
2017-02-23T10:35:39.754Z,23.05
2017-02-23T10:36:40.066Z,23.08
2017-02-23T10:37:39.631Z,23.03
2017-02-23T10:38:39.187Z,23.05
2017-02-23T10:39:39.106Z,23.09
2017-02-23T10:40:39.818Z,23.02
2017-02-23T10:41:39.755Z,23.08
2017-02-23T10:42:39.881Z,23.08
2017-02-23T10:43:39.633Z,23.05
2017-02-23T10:44:39.581Z,23.09
2017-02-23T10:45:39.509Z,23.09
2017-02-23T10:46:39.452Z,23.12
2017-02-23T10:47:39.457Z,23.15
2017-02-23T10:48:39.329Z,23.06
2017-02-23T10:49:39.265Z,23.1
2017-02-23T10:50:39.196Z,23.1
2017-02-23T10:51:39.164Z,23.1
2017-02-23T10:52:39.075Z,23.06
2017-02-23T10:53:38.635Z,23.1
2017-02-23T10:54:38.952Z,23.1
2017-02-23T10:55:38.895Z,23.06
2017-02-23T10:56:38.851Z,23.12
2017-02-23T10:57:38.874Z,23.1
2017-02-23T10:58:38.716Z,23.08
2017-02-23T10:59:38.258Z,23.12
2017-02-23T11:00:38.594Z,23.08
2017-02-23T11:01:38.518Z,23.13
2017-02-23T11:02:38.558Z,23.12
2017-02-23T11:03:38.417Z,23.15
2017-02-23T11:04:38.328Z,23.13
2017-02-23T11:05:38.294Z,23.21
2017-02-23T11:06:37.830Z,23.15
2017-02-23T11:07:38.161Z,23.18
2017-02-23T11:08:38.085Z,23.12
2017-02-23T11:09:38.031Z,23.1
2017-02-23T11:10:38.283Z,23.18
2017-02-23T11:11:37.892Z,23.12
2017-02-23T11:12:37.850Z,23.23
2017-02-23T11:13:37.799Z,23.13
2017-02-23T11:14:37.718Z,23.1
2017-02-23T11:15:37.657Z,23.23
2017-02-23T11:16:37.592Z,23.18
2017-02-23T11:17:37.155Z,23.1
2017-02-23T11:18:37.541Z,23.18
2017-02-23T11:19:37.414Z,23.23
2017-02-23T11:20:37.343Z,23.17
2017-02-23T11:21:37.305Z,23.24
2017-02-23T11:22:37.215Z,23.25
2017-02-23T11:23:37.157Z,23.13
2017-02-23T11:24:37.107Z,23.18
2017-02-23T11:25:37.035Z,23.18
2017-02-23T11:26:36.590Z,23.21
2017-02-23T11:27:36.520Z,23.2
2017-02-23T11:28:36.845Z,23.24
2017-02-23T11:29:36.424Z,23.23
2017-02-23T11:30:36.723Z,23.27
2017-02-23T11:31:36.671Z,23.24
2017-02-23T11:32:35.828Z,23.24
2017-02-23T11:33:36.550Z,23.27
2017-02-23T11:34:36.483Z,23.25
2017-02-23T11:35:36.410Z,23.27
2017-02-23T11:36:36.352Z,23.24
2017-02-23T11:37:36.288Z,23.2
2017-02-23T11:38:36.470Z,23.24
2017-02-23T11:39:36.270Z,23.15
2017-02-23T11:40:36.108Z,23.24
2017-02-23T11:41:36.050Z,23.21
2017-02-23T11:42:35.989Z,23.24
2017-02-23T11:43:35.528Z,23.23
2017-02-23T11:44:35.870Z,23.21
2017-02-23T11:45:35.406Z,23.23
2017-02-23T11:46:35.355Z,23.24
2017-02-23T11:47:35.668Z,23.21
2017-02-23T11:48:35.230Z,23.27
2017-02-23T11:49:35.564Z,23.25
2017-02-23T11:50:35.501Z,23.23
2017-02-23T11:51:35.425Z,23.17
2017-02-23T11:52:35.365Z,23.24
2017-02-23T11:53:35.304Z,23.27
2017-02-23T11:54:35.249Z,23.17
2017-02-23T11:55:34.798Z,23.27
2017-02-23T11:56:35.124Z,23.2
2017-02-23T11:57:35.053Z,23.24
2017-02-23T11:58:35.003Z,23.23
2017-02-23T11:59:34.930Z,23.2
2017-02-23T12:00:34.881Z,23.18
2017-02-23T12:01:34.808Z,23.21
2017-02-23T12:02:34.752Z,23.21
2017-02-23T12:03:34.679Z,23.24
2017-02-23T12:04:34.629Z,23.25
2017-02-23T12:05:34.586Z,23.25
2017-02-23T12:06:34.525Z,23.23
2017-02-23T12:07:34.447Z,23.24
2017-02-23T12:08:34.398Z,23.2
2017-02-23T12:09:34.309Z,23.27
2017-02-23T12:10:34.258Z,23.27
2017-02-23T12:11:34.199Z,23.25
2017-02-23T12:12:34.140Z,23.23
2017-02-23T12:13:34.064Z,23.25
2017-02-23T12:14:34.011Z,23.27
2017-02-23T12:15:33.554Z,23.31
2017-02-23T12:16:33.886Z,23.25
2017-02-23T12:17:33.815Z,23.36
2017-02-23T12:18:33.779Z,23.27
2017-02-23T12:19:33.690Z,23.27
2017-02-23T12:20:33.647Z,23.27
2017-02-23T12:21:33.569Z,23.27
2017-02-23T12:22:33.507Z,23.36
2017-02-23T12:23:33.455Z,23.28
2017-02-23T12:24:33.455Z,23.39
2017-02-23T12:25:33.325Z,23.36
2017-02-23T12:26:33.270Z,23.39
2017-02-23T12:27:33.222Z,23.37
2017-02-23T12:28:33.151Z,23.37
2017-02-23T12:29:33.135Z,23.28
2017-02-23T12:30:33.052Z,23.31
2017-02-23T12:31:32.956Z,23.34
2017-02-23T12:32:32.527Z,23.32
2017-02-23T12:33:32.833Z,23.28
2017-02-23T12:34:32.836Z,23.32
2017-02-23T12:35:32.826Z,23.32
2017-02-23T12:36:32.684Z,23.32
2017-02-23T12:37:32.611Z,23.36
2017-02-23T12:38:32.145Z,23.47
2017-02-23T12:39:32.462Z,23.31
2017-02-23T12:40:32.793Z,23.37
2017-02-23T12:41:32.349Z,23.44
2017-02-23T12:42:32.282Z,23.31
2017-02-23T12:43:31.856Z,23.34
2017-02-23T12:44:31.771Z,23.37
2017-02-23T12:45:32.090Z,23.37
2017-02-23T12:46:31.648Z,23.34
2017-02-23T12:47:31.585Z,23.43
2017-02-23T12:48:31.909Z,23.36
2017-02-23T12:49:31.844Z,23.37
2017-02-23T12:50:32.105Z,23.4
2017-02-23T12:51:31.732Z,23.41
2017-02-23T12:52:32.551Z,23.43
2017-02-23T12:53:31.601Z,23.44
2017-02-23T12:54:31.168Z,23.46
2017-02-23T12:55:31.576Z,23.4
2017-02-23T12:56:31.436Z,23.47
2017-02-23T12:57:31.350Z,23.44